Time;durP1;ratioP1;P1;durP2;ratioP2;P2;SDS_P1;SDS_P2;PMS_P1;PMS_P2;Temp;Humidity;BMP_temperature;BMP_pressure;BME280_temperature;BME280_humidity;BME280_pressure;Samples;Min_cycle;Max_cycle;Signal;HPM_P1;HPM_P2
2022/10/12 00:00:13;;;;;;;;;;;14.20;70.70;;;;;;5099982;28;19950;-54
2022/10/12 00:02:39;;;;;;;;;;;14.20;71.40;;;;;;5099898;28;20416;-53
2022/10/12 00:05:05;;;;;;;;;;;14.20;74.90;;;;;;5099323;28;19920;-53
2022/10/12 00:07:31;;;;;;;;;;;14.10;76.90;;;;;;5099220;28;19920;-52
2022/10/12 00:09:56;;;;;;;;;;;14.00;74.70;;;;;;5099580;28;19908;-51
2022/10/12 00:12:22;;;;;;;;;;;14.00;73.30;;;;;;5099502;28;19929;-51
2022/10/12 00:14:48;;;;;;;;;;;14.00;70.80;;;;;;5099692;28;19999;-53
2022/10/12 00:17:13;;;;;;;;;;;14.00;71.80;;;;;;5099601;28;19908;-52
2022/10/12 00:19:39;;;;;;;;;;;13.90;74.30;;;;;;5099676;28;20314;-52
2022/10/12 00:22:05;;;;;;;;;;;13.90;71.60;;;;;;5099508;28;19912;-50
2022/10/12 00:24:30;;;;;;;;;;;13.90;73.00;;;;;;5099172;28;19962;-53
2022/10/12 00:26:56;;;;;;;;;;;14.00;74.50;;;;;;5099524;28;20279;-51
2022/10/12 00:29:22;;;;;;;;;;;14.00;75.40;;;;;;5099325;28;19915;-50
2022/10/12 00:31:48;;;;;;;;;;;14.00;72.50;;;;;;5099660;28;19972;-51
2022/10/12 00:34:13;;;;;;;;;;;14.00;72.30;;;;;;5099077;28;19961;-50
2022/10/12 00:36:39;;;;;;;;;;;14.10;74.20;;;;;;5099487;28;19908;-50
2022/10/12 00:39:06;;;;;;;;;;;14.10;77.50;;;;;;5099168;28;19912;-49
2022/10/12 00:41:34;;;;;;;;;;;14.20;74.00;;;;;;5098997;28;19912;-53
2022/10/12 00:43:59;;;;;;;;;;;14.20;76.10;;;;;;5098839;28;19950;-53
2022/10/12 00:46:25;;;;;;;;;;;14.20;75.00;;;;;;5099346;28;19909;-54
2022/10/12 00:48:53;;;;;;;;;;;14.20;73.50;;;;;;5098085;28;20386;-51
2022/10/12 00:51:20;;;;;;;;;;;14.20;74.30;;;;;;5099094;28;20007;-49
2022/10/12 00:53:48;;;;;;;;;;;14.20;72.60;;;;;;5099154;28;20000;-49
2022/10/12 00:56:17;;;;;;;;;;;14.30;72.50;;;;;;5099038;28;19908;-51
2022/10/12 00:58:44;;;;;;;;;;;14.30;73.90;;;;;;5098685;28;19908;-54
2022/10/12 01:01:09;;;;;;;;;;;14.40;74.60;;;;;;5099114;28;20275;-49
2022/10/12 01:03:35;;;;;;;;;;;14.40;79.20;;;;;;5098618;28;19909;-52
2022/10/12 01:06:01;;;;;;;;;;;14.40;75.00;;;;;;5098106;28;19950;-50
2022/10/12 01:08:27;;;;;;;;;;;14.40;76.70;;;;;;5098610;28;19915;-50
2022/10/12 01:10:54;;;;;;;;;;;14.40;77.20;;;;;;5098659;28;19908;-51
2022/10/12 01:13:20;;;;;;;;;;;14.50;79.30;;;;;;5098633;28;19908;-50
2022/10/12 01:15:54;;;;;;;;;;;14.40;78.90;;;;;;5098734;28;19908;-53
2022/10/12 01:18:24;;;;;;;;;;;14.30;80.90;;;;;;5098848;28;19908;-52
2022/10/12 01:21:00;;;;;;;;;;;14.30;81.50;;;;;;5098579;28;19908;-51
2022/10/12 01:23:26;;;;;;;;;;;14.30;77.20;;;;;;5098962;28;19909;-51
2022/10/12 01:26:00;;;;;;;;;;;14.30;75.20;;;;;;5098216;28;19954;-53
2022/10/12 01:28:35;;;;;;;;;;;14.20;74.20;;;;;;5098297;28;20402;-54
2022/10/12 01:31:08;;;;;;;;;;;14.20;75.60;;;;;;5098449;28;19943;-50
2022/10/12 01:33:37;;;;;;;;;;;14.20;75.70;;;;;;5098465;28;19915;-52
2022/10/12 01:36:03;;;;;;;;;;;14.10;75.20;;;;;;5098207;28;19908;-51
2022/10/12 01:38:28;;;;;;;;;;;14.10;77.30;;;;;;5098405;28;19908;-51
2022/10/12 01:40:57;;;;;;;;;;;14.00;74.10;;;;;;5097672;28;20709;-51
2022/10/12 01:43:22;;;;;;;;;;;14.00;75.60;;;;;;5098000;28;19908;-50
2022/10/12 01:45:48;;;;;;;;;;;13.90;74.50;;;;;;5097735;28;19913;-50
2022/10/12 01:48:15;;;;;;;;;;;13.90;74.20;;;;;;5098068;28;19912;-50
2022/10/12 01:50:48;;;;;;;;;;;13.80;79.50;;;;;;5098049;28;20480;-52
2022/10/12 01:53:14;;;;;;;;;;;13.60;79.10;;;;;;5097910;28;19919;-54
2022/10/12 01:55:48;;;;;;;;;;;13.60;75.00;;;;;;5097868;28;19909;-50
2022/10/12 01:58:27;;;;;;;;;;;13.50;78.10;;;;;;5097951;28;19908;-52
2022/10/12 02:00:53;;;;;;;;;;;13.50;76.20;;;;;;5101000;28;19908;-51
2022/10/12 02:03:20;;;;;;;;;;;13.50;74.60;;;;;;5101882;28;19947;-53
2022/10/12 02:05:49;;;;;;;;;;;13.40;74.30;;;;;;5101666;28;19920;-51
2022/10/12 02:08:14;;;;;;;;;;;13.40;77.10;;;;;;5101571;28;19919;-53
2022/10/12 02:10:49;;;;;;;;;;;13.30;77.00;;;;;;5101867;28;20010;-53
2022/10/12 02:13:17;;;;;;;;;;;13.30;74.50;;;;;;5101575;28;20330;-54
2022/10/12 02:15:43;;;;;;;;;;;13.20;76.90;;;;;;5101817;28;19915;-52
2022/10/12 02:18:12;;;;;;;;;;;13.20;80.40;;;;;;5101317;28;19930;-52
2022/10/12 02:20:38;;;;;;;;;;;13.20;80.60;;;;;;5101462;28;20325;-51
2022/10/12 02:23:04;;;;;;;;;;;13.10;78.60;;;;;;5101769;28;19912;-51
2022/10/12 02:25:32;;;;;;;;;;;13.10;75.90;;;;;;5101566;28;20011;-52
2022/10/12 02:28:12;;;;;;;;;;;13.00;74.90;;;;;;5101632;28;19923;-55
2022/10/12 02:30:49;;;;;;;;;;;13.00;75.80;;;;;;5101355;28;19994;-50
2022/10/12 02:33:35;;;;;;;;;;;13.00;78.50;;;;;;5101354;28;19908;-53
2022/10/12 02:36:21;;;;;;;;;;;13.00;78.70;;;;;;5083191;28;19909;-50
2022/10/12 02:39:00;;;;;;;;;;;12.90;75.70;;;;;;5049609;28;20009;-50
2022/10/12 02:41:28;;;;;;;;;;;12.90;75.50;;;;;;5101296;28;19912;-50
2022/10/12 02:43:59;;;;;;;;;;;12.90;74.80;;;;;;5100714;28;19922;-54
2022/10/12 02:46:25;;;;;;;;;;;12.90;79.10;;;;;;5101095;28;19908;-53
2022/10/12 02:48:52;;;;;;;;;;;12.80;76.60;;;;;;5100661;28;19908;-52
2022/10/12 02:51:18;;;;;;;;;;;12.90;77.60;;;;;;5101008;28;19908;-51
2022/10/12 02:53:44;;;;;;;;;;;12.80;75.90;;;;;;5100866;28;19916;-53
2022/10/12 02:56:11;;;;;;;;;;;12.80;76.20;;;;;;5100807;28;19915;-54
2022/10/12 02:58:37;;;;;;;;;;;12.70;77.60;;;;;;5101081;28;19931;-50
2022/10/12 03:01:02;;;;;;;;;;;12.70;76.90;;;;;;5100617;28;19912;-51
2022/10/12 03:03:28;;;;;;;;;;;12.70;79.70;;;;;;5100803;28;19993;-54
2022/10/12 03:05:54;;;;;;;;;;;12.60;78.50;;;;;;5082230;28;19924;-52
2022/10/12 03:08:19;;;;;;;;;;;12.60;76.70;;;;;;5100505;28;20390;-52
2022/10/12 03:10:45;;;;;;;;;;;12.60;77.70;;;;;;5099557;28;19908;-49
2022/10/12 03:13:11;;;;;;;;;;;12.60;76.80;;;;;;5100496;28;19910;-53
2022/10/12 03:15:36;;;;;;;;;;;12.50;76.60;;;;;;5100436;28;19908;-51
2022/10/12 03:18:02;;;;;;;;;;;12.50;79.20;;;;;;5100453;28;20290;-51
2022/10/12 03:20:28;;;;;;;;;;;12.50;81.30;;;;;;5100597;28;19915;-53
2022/10/12 03:22:53;;;;;;;;;;;12.50;75.90;;;;;;5100296;28;19931;-51
2022/10/12 03:25:19;;;;;;;;;;;12.50;76.90;;;;;;5100264;28;19920;-55
2022/10/12 03:27:44;;;;;;;;;;;12.40;78.50;;;;;;5100041;28;19973;-51
2022/10/12 03:30:10;;;;;;;;;;;12.40;80.60;;;;;;5100352;28;19908;-52
2022/10/12 03:32:36;;;;;;;;;;;12.40;76.70;;;;;;5099946;28;19915;-51
2022/10/12 03:35:02;;;;;;;;;;;12.40;78.00;;;;;;5100041;28;19912;-51
2022/10/12 03:37:28;;;;;;;;;;;12.40;79.50;;;;;;5100543;28;19978;-50
2022/10/12 03:39:53;;;;;;;;;;;12.40;76.60;;;;;;5099891;28;20328;-54
2022/10/12 03:42:19;;;;;;;;;;;12.40;80.80;;;;;;5100012;28;19991;-51
2022/10/12 03:44:45;;;;;;;;;;;12.50;80.70;;;;;;5099767;28;19916;-51
2022/10/12 03:47:10;;;;;;;;;;;12.50;79.10;;;;;;5099723;28;19951;-54
2022/10/12 03:49:36;;;;;;;;;;;12.50;78.80;;;;;;5100148;28;20356;-51
2022/10/12 03:52:02;;;;;;;;;;;12.60;83.20;;;;;;5099646;28;19934;-53
2022/10/12 03:54:27;;;;;;;;;;;12.60;83.80;;;;;;5099647;28;19908;-54
2022/10/12 03:56:53;;;;;;;;;;;12.60;80.50;;;;;;5099891;28;20378;-52
2022/10/12 03:59:18;;;;;;;;;;;12.60;78.10;;;;;;5099968;28;19916;-54
2022/10/12 04:01:44;;;;;;;;;;;12.50;80.30;;;;;;5099498;28;20001;-52
2022/10/12 04:04:10;;;;;;;;;;;12.60;78.60;;;;;;5099814;28;20302;-51
2022/10/12 04:06:35;;;;;;;;;;;12.50;77.70;;;;;;5099222;28;19920;-54
2022/10/12 04:09:01;;;;;;;;;;;12.50;77.30;;;;;;5099517;28;19940;-54
2022/10/12 04:11:27;;;;;;;;;;;12.40;77.00;;;;;;5099340;28;19957;-51
2022/10/12 04:13:53;;;;;;;;;;;12.40;77.30;;;;;;5099198;28;19908;-51
2022/10/12 04:16:18;;;;;;;;;;;12.30;78.90;;;;;;5098954;28;20003;-51
2022/10/12 04:18:44;;;;;;;;;;;12.30;78.00;;;;;;5099118;28;19999;-52
2022/10/12 04:21:11;;;;;;;;;;;12.30;76.40;;;;;;5099486;28;19927;-53
2022/10/12 04:23:37;;;;;;;;;;;12.30;77.70;;;;;;5098792;28;19908;-53
2022/10/12 04:26:03;;;;;;;;;;;12.20;77.10;;;;;;5099018;28;19995;-52
2022/10/12 04:28:28;;;;;;;;;;;12.20;80.90;;;;;;5098963;28;19936;-54
2022/10/12 04:30:54;;;;;;;;;;;12.20;78.40;;;;;;5099303;28;19965;-51
2022/10/12 04:33:19;;;;;;;;;;;12.20;77.70;;;;;;5098824;28;20324;-53
2022/10/12 04:35:45;;;;;;;;;;;12.20;78.50;;;;;;5099108;28;19908;-51
2022/10/12 04:38:12;;;;;;;;;;;12.20;78.00;;;;;;5098990;28;20389;-53
2022/10/12 04:40:37;;;;;;;;;;;12.20;78.30;;;;;;5098798;28;20009;-51
2022/10/12 04:43:03;;;;;;;;;;;12.30;79.10;;;;;;5098625;28;19908;-50
2022/10/12 04:45:29;;;;;;;;;;;12.30;83.50;;;;;;5098371;28;19912;-53
2022/10/12 04:47:55;;;;;;;;;;;12.20;78.30;;;;;;5098576;28;19920;-51
2022/10/12 04:50:21;;;;;;;;;;;12.20;77.70;;;;;;5098776;28;19930;-51
2022/10/12 04:52:47;;;;;;;;;;;12.20;78.90;;;;;;5098774;28;20427;-51
2022/10/12 04:55:12;;;;;;;;;;;12.20;81.90;;;;;;5098859;28;19954;-52
2022/10/12 04:57:38;;;;;;;;;;;12.10;77.90;;;;;;5098488;28;19971;-51
2022/10/12 05:00:04;;;;;;;;;;;12.10;78.90;;;;;;5098456;28;20268;-55
2022/10/12 05:02:30;;;;;;;;;;;12.00;82.60;;;;;;5098379;28;19908;-52
2022/10/12 05:04:56;;;;;;;;;;;12.00;80.10;;;;;;5098640;28;19912;-54
2022/10/12 05:07:22;;;;;;;;;;;12.00;78.90;;;;;;5097961;28;20006;-52
2022/10/12 05:09:48;;;;;;;;;;;12.00;79.40;;;;;;5098535;28;20397;-53
2022/10/12 05:12:14;;;;;;;;;;;12.00;79.40;;;;;;5098257;28;19954;-52
2022/10/12 05:14:39;;;;;;;;;;;12.00;78.70;;;;;;5098275;28;19908;-53
2022/10/12 05:17:05;;;;;;;;;;;12.00;82.40;;;;;;5098294;28;19908;-49
2022/10/12 05:19:31;;;;;;;;;;;12.00;79.00;;;;;;5098101;28;20417;-53
2022/10/12 05:21:56;;;;;;;;;;;12.00;78.00;;;;;;5098574;28;19908;-49
2022/10/12 05:24:22;;;;;;;;;;;12.10;81.30;;;;;;5098120;28;19919;-53
2022/10/12 05:26:47;;;;;;;;;;;12.10;79.40;;;;;;5098320;28;19932;-55
2022/10/12 05:29:13;;;;;;;;;;;12.20;78.70;;;;;;5098015;28;20326;-49
2022/10/12 05:31:39;;;;;;;;;;;12.20;78.80;;;;;;5098166;28;19962;-51
2022/10/12 05:34:04;;;;;;;;;;;12.30;83.70;;;;;;5099883;28;20428;-49
2022/10/12 05:36:30;;;;;;;;;;;12.30;84.70;;;;;;5104694;28;19950;-52
2022/10/12 05:38:55;;;;;;;;;;;12.30;82.00;;;;;;5105017;28;19958;-52
2022/10/12 05:41:21;;;;;;;;;;;12.30;79.70;;;;;;5104508;28;19912;-51
2022/10/12 05:43:47;;;;;;;;;;;12.20;79.60;;;;;;5104622;28;19909;-53
2022/10/12 05:46:12;;;;;;;;;;;12.10;83.40;;;;;;5104744;28;20007;-49
2022/10/12 05:48:38;;;;;;;;;;;12.00;79.80;;;;;;5104018;28;20276;-54
2022/10/12 05:51:04;;;;;;;;;;;11.90;79.10;;;;;;5104015;28;19908;-51
2022/10/12 05:53:30;;;;;;;;;;;11.90;79.10;;;;;;5104768;28;19908;-51
2022/10/12 05:55:56;;;;;;;;;;;11.80;78.90;;;;;;5104657;28;19934;-50
2022/10/12 05:58:23;;;;;;;;;;;11.80;80.30;;;;;;5104625;28;19909;-52
2022/10/12 06:00:49;;;;;;;;;;;11.70;83.70;;;;;;5104313;28;19915;-53
2022/10/12 06:03:14;;;;;;;;;;;11.50;84.30;;;;;;5104382;28;19944;-49
2022/10/12 06:05:40;;;;;;;;;;;11.50;81.90;;;;;;5104245;28;19930;-49
2022/10/12 06:08:07;;;;;;;;;;;11.40;80.40;;;;;;5104778;28;19915;-51
2022/10/12 06:10:34;;;;;;;;;;;11.40;80.30;;;;;;5086019;28;19908;-54
2022/10/12 06:12:59;;;;;;;;;;;11.50;83.60;;;;;;5104345;28;19986;-52
2022/10/12 06:15:25;;;;;;;;;;;11.50;80.20;;;;;;5104247;28;19912;-52
2022/10/12 06:17:51;;;;;;;;;;;11.40;79.80;;;;;;5104665;28;19908;-53
2022/10/12 06:20:16;;;;;;;;;;;11.40;80.00;;;;;;5104197;28;19908;-53
2022/10/12 06:22:42;;;;;;;;;;;11.40;78.90;;;;;;5104096;28;19952;-53
2022/10/12 06:25:08;;;;;;;;;;;11.40;79.70;;;;;;5104260;28;19912;-51
2022/10/12 06:27:34;;;;;;;;;;;11.50;84.20;;;;;;5104159;28;19954;-51
2022/10/12 06:30:00;;;;;;;;;;;11.60;86.10;;;;;;5104142;28;19908;-53
2022/10/12 06:32:25;;;;;;;;;;;11.60;82.90;;;;;;5104090;28;19915;-54
2022/10/12 06:34:51;;;;;;;;;;;11.70;81.20;;;;;;5104347;28;19908;-52
2022/10/12 06:37:17;;;;;;;;;;;11.70;80.90;;;;;;5104233;28;19908;-49
2022/10/12 06:39:42;;;;;;;;;;;11.80;86.30;;;;;;5104232;28;19916;-50
2022/10/12 06:42:08;;;;;;;;;;;11.80;84.00;;;;;;5104386;28;19908;-54
2022/10/12 06:44:34;;;;;;;;;;;11.90;82.20;;;;;;5103740;28;19912;-52
2022/10/12 06:46:59;;;;;;;;;;;11.90;82.20;;;;;;5101286;28;19991;-51
2022/10/12 06:49:25;;;;;;;;;;;11.90;83.60;;;;;;5100542;28;20482;-54
2022/10/12 06:51:51;;;;;;;;;;;12.00;82.80;;;;;;5100916;28;19908;-49
2022/10/12 06:54:16;;;;;;;;;;;12.10;83.20;;;;;;5100921;28;19975;-52
2022/10/12 06:56:43;;;;;;;;;;;12.20;84.40;;;;;;5100551;28;19908;-52
2022/10/12 06:59:10;;;;;;;;;;;12.20;85.10;;;;;;5100344;28;19915;-50
2022/10/12 07:01:36;;;;;;;;;;;12.30;82.60;;;;;;5100448;28;19909;-52
2022/10/12 07:04:01;;;;;;;;;;;12.40;85.10;;;;;;5100646;28;19995;-54
2022/10/12 07:06:27;;;;;;;;;;;12.40;87.50;;;;;;5100303;28;19963;-50
2022/10/12 07:08:53;;;;;;;;;;;12.40;84.20;;;;;;5100252;28;20417;-50
2022/10/12 07:11:19;;;;;;;;;;;12.50;84.30;;;;;;5100132;28;19960;-52
2022/10/12 07:13:44;;;;;;;;;;;12.60;86.10;;;;;;5100551;28;19916;-51
2022/10/12 07:16:10;;;;;;;;;;;12.60;83.60;;;;;;5100314;28;20287;-51
2022/10/12 07:18:36;;;;;;;;;;;12.70;85.20;;;;;;5100409;28;19976;-49
2022/10/12 07:21:02;;;;;;;;;;;12.70;87.00;;;;;;5099872;28;20268;-54
2022/10/12 07:23:31;;;;;;;;;;;12.70;84.90;;;;;;5099918;28;19916;-54
2022/10/12 07:25:57;;;;;;;;;;;12.80;86.70;;;;;;5099967;28;19947;-51
2022/10/12 07:28:22;;;;;;;;;;;12.90;86.10;;;;;;5100417;28;20380;-53
2022/10/12 07:30:48;;;;;;;;;;;12.90;87.40;;;;;;5099941;28;20409;-52
2022/10/12 07:33:14;;;;;;;;;;;12.90;86.80;;;;;;5100253;28;20375;-54
2022/10/12 07:35:39;;;;;;;;;;;13.00;84.40;;;;;;5100084;28;20407;-50
2022/10/12 07:38:05;;;;;;;;;;;13.00;85.50;;;;;;5099837;28;19927;-52
2022/10/12 07:40:31;;;;;;;;;;;13.10;87.40;;;;;;5099981;28;19942;-53
2022/10/12 07:42:57;;;;;;;;;;;13.20;85.70;;;;;;5099982;28;20003;-53
2022/10/12 07:45:23;;;;;;;;;;;13.20;86.60;;;;;;5099822;28;19956;-50
2022/10/12 07:47:49;;;;;;;;;;;13.30;86.30;;;;;;5099394;28;19951;-49
2022/10/12 07:50:15;;;;;;;;;;;13.30;86.60;;;;;;5099774;28;19919;-50
2022/10/12 07:52:40;;;;;;;;;;;13.30;87.50;;;;;;5099549;28;20391;-52
2022/10/12 07:55:06;;;;;;;;;;;13.40;87.80;;;;;;5099438;28;19951;-51
2022/10/12 07:57:32;;;;;;;;;;;13.40;88.60;;;;;;5099116;28;20008;-52
2022/10/12 07:59:58;;;;;;;;;;;13.50;87.60;;;;;;5099834;28;19915;-51
2022/10/12 08:02:23;;;;;;;;;;;13.50;88.20;;;;;;5099085;28;20036;-53
2022/10/12 08:04:49;;;;;;;;;;;13.50;89.30;;;;;;5099237;28;19912;-51
2022/10/12 08:07:15;;;;;;;;;;;13.50;89.40;;;;;;5099151;28;19924;-51
2022/10/12 08:09:40;;;;;;;;;;;13.60;87.70;;;;;;5099187;28;19908;-51
2022/10/12 08:12:06;;;;;;;;;;;13.70;89.10;;;;;;5098962;28;19916;-53
2022/10/12 08:14:32;;;;;;;;;;;13.80;88.40;;;;;;5099373;28;20318;-50
2022/10/12 08:16:57;;;;;;;;;;;13.90;87.30;;;;;;5099079;28;19953;-50
2022/10/12 08:19:23;;;;;;;;;;;14.10;86.40;;;;;;5099264;28;19908;-52
2022/10/12 08:21:49;;;;;;;;;;;14.10;87.90;;;;;;5098914;28;19908;-49
2022/10/12 08:24:15;;;;;;;;;;;14.30;87.60;;;;;;5098570;28;19956;-55
2022/10/12 08:26:40;;;;;;;;;;;14.40;87.50;;;;;;5099113;28;19915;-52
2022/10/12 08:29:07;;;;;;;;;;;14.50;86.90;;;;;;5098787;28;19958;-53
2022/10/12 08:31:33;;;;;;;;;;;14.70;87.00;;;;;;5098465;28;19908;-54
2022/10/12 08:33:59;;;;;;;;;;;14.80;86.90;;;;;;5098814;28;19979;-51
2022/10/12 08:36:25;;;;;;;;;;;14.80;86.70;;;;;;5080533;28;19952;-52
2022/10/12 08:38:53;;;;;;;;;;;15.00;86.90;;;;;;5098735;28;20296;-49
2022/10/12 08:41:28;;;;;;;;;;;15.10;87.10;;;;;;5098517;28;19909;-50
2022/10/12 08:43:53;;;;;;;;;;;15.20;85.40;;;;;;5098585;28;20255;-53
2022/10/12 08:46:20;;;;;;;;;;;15.40;86.10;;;;;;5098437;28;19912;-52
2022/10/12 08:48:48;;;;;;;;;;;15.60;86.00;;;;;;5098467;28;19908;-53
2022/10/12 08:51:16;;;;;;;;;;;15.70;84.30;;;;;;5098617;28;19995;-53
2022/10/12 08:53:54;;;;;;;;;;;15.80;83.10;;;;;;5098208;28;19915;-50
2022/10/12 08:56:20;;;;;;;;;;;16.00;84.20;;;;;;5098313;28;19912;-54
2022/10/12 08:58:47;;;;;;;;;;;16.30;84.30;;;;;;5098579;28;19914;-53
2022/10/12 09:01:29;;;;;;;;;;;16.50;83.40;;;;;;5098463;28;20405;-51
2022/10/12 09:04:04;;;;;;;;;;;16.70;81.30;;;;;;5098065;28;19908;-51
2022/10/12 09:06:33;;;;;;;;;;;16.50;78.60;;;;;;5097823;28;19927;-53
2022/10/12 09:09:02;;;;;;;;;;;16.50;79.70;;;;;;5097314;28;19908;-51
2022/10/12 09:11:46;;;;;;;;;;;16.50;79.20;;;;;;5098322;28;20030;-53
2022/10/12 09:14:32;;;;;;;;;;;16.30;79.10;;;;;;5098307;28;19958;-52
2022/10/12 09:16:59;;;;;;;;;;;16.10;78.10;;;;;;5097389;28;20386;-51
2022/10/12 09:19:31;;;;;;;;;;;16.00;78.60;;;;;;5098430;28;19920;-53
2022/10/12 09:21:57;;;;;;;;;;;16.10;78.90;;;;;;5098019;28;19908;-53
2022/10/12 09:24:25;;;;;;;;;;;16.70;82.50;;;;;;5098431;28;19944;-52
2022/10/12 09:26:56;;;;;;;;;;;18.00;86.20;;;;;;5097922;28;19915;-53
2022/10/12 09:29:26;;;;;;;;;;;19.40;79.10;;;;;;5098264;28;19916;-50
2022/10/12 09:32:10;;;;;;;;;;;20.70;75.40;;;;;;5097816;28;19912;-52
2022/10/12 09:34:36;;;;;;;;;;;21.50;81.50;;;;;;5098069;28;19912;-51
2022/10/12 09:37:05;;;;;;;;;;;21.60;65.80;;;;;;5097637;28;20405;-53
2022/10/12 09:39:35;;;;;;;;;;;22.40;64.90;;;;;;5097737;28;19950;-53
2022/10/12 09:42:01;;;;;;;;;;;22.20;62.30;;;;;;5097625;28;19909;-53
2022/10/12 09:44:39;;;;;;;;;;;22.60;73.00;;;;;;5079626;28;19915;-55
2022/10/12 09:47:06;;;;;;;;;;;23.50;62.30;;;;;;5097630;28;19915;-53
2022/10/12 09:49:45;;;;;;;;;;;23.70;65.90;;;;;;5098074;28;19908;-55
2022/10/12 09:52:11;;;;;;;;;;;24.40;66.80;;;;;;5097877;28;19915;-53
2022/10/12 09:54:46;;;;;;;;;;;24.30;67.50;;;;;;5093427;28;19913;-52
2022/10/12 09:57:23;;;;;;;;;;;23.80;61.90;;;;;;5097695;28;19912;-52
2022/10/12 09:59:50;;;;;;;;;;;23.50;60.70;;;;;;5097632;28;19915;-55
2022/10/12 10:02:17;;;;;;;;;;;22.70;58.70;;;;;;5097497;28;19912;-54
2022/10/12 10:04:44;;;;;;;;;;;22.20;60.20;;;;;;5097413;28;19912;-54
2022/10/12 10:07:17;;;;;;;;;;;21.70;58.20;;;;;;5096859;28;20463;-53
2022/10/12 10:09:43;;;;;;;;;;;21.10;61.20;;;;;;5097500;28;20280;-52
2022/10/12 10:12:18;;;;;;;;;;;20.60;62.70;;;;;;5096994;28;19912;-50
2022/10/12 10:14:44;;;;;;;;;;;20.80;62.60;;;;;;5097191;28;19908;-51
2022/10/12 10:17:13;;;;;;;;;;;20.90;62.00;;;;;;5097859;28;19915;-53
2022/10/12 10:19:39;;;;;;;;;;;20.80;61.30;;;;;;5097190;28;19916;-52
2022/10/12 10:22:07;;;;;;;;;;;21.00;63.60;;;;;;5101327;28;19931;-53
2022/10/12 10:24:33;;;;;;;;;;;20.90;61.80;;;;;;5100845;28;20276;-53
2022/10/12 10:27:03;;;;;;;;;;;20.70;61.60;;;;;;5100983;28;19931;-51
2022/10/12 10:29:39;;;;;;;;;;;20.20;62.00;;;;;;5098601;28;19959;-55
2022/10/12 10:32:10;;;;;;;;;;;20.00;63.00;;;;;;5101057;28;19928;-51
2022/10/12 10:34:36;;;;;;;;;;;19.90;63.80;;;;;;5099213;28;20336;-52
2022/10/12 10:37:03;;;;;;;;;;;19.80;62.30;;;;;;5099823;28;19953;-52
2022/10/12 10:39:45;;;;;;;;;;;19.60;62.80;;;;;;5101238;28;19908;-54
2022/10/12 10:42:11;;;;;;;;;;;19.60;64.40;;;;;;5100865;28;19908;-52
2022/10/12 10:44:37;;;;;;;;;;;19.70;64.40;;;;;;5100998;28;19912;-54
2022/10/12 10:47:10;;;;;;;;;;;19.80;65.00;;;;;;5100846;28;19908;-50
2022/10/12 10:49:35;;;;;;;;;;;19.60;62.80;;;;;;5100718;28;19908;-51
2022/10/12 10:52:01;;;;;;;;;;;19.70;64.80;;;;;;5100866;28;19908;-54
2022/10/12 10:54:29;;;;;;;;;;;19.70;63.60;;;;;;5100178;28;19908;-53
2022/10/12 10:57:00;;;;;;;;;;;20.00;64.80;;;;;;5100443;28;19915;-53
2022/10/12 10:59:31;;;;;;;;;;;20.70;66.00;;;;;;5100736;28;19916;-52
2022/10/12 11:02:00;;;;;;;;;;;21.70;65.30;;;;;;5100461;28;19908;-53
2022/10/12 11:04:28;;;;;;;;;;;22.40;60.00;;;;;;5100392;28;19915;-53
2022/10/12 11:06:56;;;;;;;;;;;23.00;62.50;;;;;;5100205;28;19978;-52
2022/10/12 11:09:28;;;;;;;;;;;23.30;62.00;;;;;;5100370;28;19915;-53
2022/10/12 11:11:56;;;;;;;;;;;24.50;59.80;;;;;;5100416;28;19912;-54
2022/10/12 11:14:26;;;;;;;;;;;24.60;53.80;;;;;;5100346;28;19914;-52
2022/10/12 11:16:54;;;;;;;;;;;24.40;50.50;;;;;;5099714;28;19916;-55
2022/10/12 11:19:32;;;;;;;;;;;25.10;61.90;;;;;;5100596;28;20034;-53
2022/10/12 11:22:16;;;;;;;;;;;26.20;51.70;;;;;;5100118;28;20045;-53
2022/10/12 11:24:44;;;;;;;;;;;26.20;48.10;;;;;;5099804;28;19920;-51
2022/10/12 11:27:13;;;;;;;;;;;25.30;46.90;;;;;;5100054;28;19908;-55
2022/10/12 11:29:38;;;;;;;;;;;24.80;52.10;;;;;;5100066;28;19908;-55
2022/10/12 11:32:06;;;;;;;;;;;25.60;51.50;;;;;;5099324;28;19915;-55
2022/10/12 11:34:47;;;;;;;;;;;25.90;48.60;;;;;;5099858;28;19915;-54
2022/10/12 11:37:15;;;;;;;;;;;26.20;47.00;;;;;;5099885;28;19912;-53
2022/10/12 11:39:42;;;;;;;;;;;26.20;47.10;;;;;;5099667;28;19916;-50
2022/10/12 11:42:12;;;;;;;;;;;25.20;47.80;;;;;;5100097;28;19938;-53
2022/10/12 11:44:45;;;;;;;;;;;24.20;49.70;;;;;;5099714;28;19975;-51
2022/10/12 11:47:29;;;;;;;;;;;24.80;47.80;;;;;;5100075;28;20022;-51
2022/10/12 11:49:58;;;;;;;;;;;24.00;48.20;;;;;;5100003;28;19966;-53
2022/10/12 11:52:24;;;;;;;;;;;24.80;49.00;;;;;;5099105;28;19909;-55
2022/10/12 11:55:06;;;;;;;;;;;24.60;47.60;;;;;;5099639;28;19908;-54
2022/10/12 11:57:33;;;;;;;;;;;24.30;47.40;;;;;;5099945;28;19916;-55
2022/10/12 12:00:04;;;;;;;;;;;23.50;48.00;;;;;;5099521;28;19909;-54
2022/10/12 12:02:37;;;;;;;;;;;23.60;48.50;;;;;;5099384;28;20025;-52
2022/10/12 12:05:04;;;;;;;;;;;23.70;49.40;;;;;;5099561;28;20283;-52
2022/10/12 12:07:35;;;;;;;;;;;24.00;49.80;;;;;;5098920;28;19920;-53
2022/10/12 12:10:21;;;;;;;;;;;24.40;50.10;;;;;;5099854;28;20293;-52
2022/10/12 12:13:06;;;;;;;;;;;24.60;46.30;;;;;;5099146;28;19908;-53
2022/10/12 12:15:32;;;;;;;;;;;24.10;47.30;;;;;;5099308;28;19991;-51
2022/10/12 12:18:16;;;;;;;;;;;25.00;48.90;;;;;;5099072;28;19940;-52
2022/10/12 12:20:45;;;;;;;;;;;25.50;46.80;;;;;;5099298;28;19995;-55
2022/10/12 12:23:23;;;;;;;;;;;24.70;44.80;;;;;;5099177;28;20006;-53
2022/10/12 12:26:18;;;;;;;;;;;24.20;49.30;;;;;;5098953;28;19919;-51
2022/10/12 12:28:45;;;;;;;;;;;24.60;45.80;;;;;;5077190;28;19915;-54
2022/10/12 12:31:15;;;;;;;;;;;24.80;49.20;;;;;;5098911;28;19915;-51
2022/10/12 12:33:44;;;;;;;;;;;24.90;47.00;;;;;;5098831;28;19953;-53
2022/10/12 12:36:30;;;;;;;;;;;25.00;47.80;;;;;;5099573;28;19995;-53
2022/10/12 12:38:56;;;;;;;;;;;24.90;45.90;;;;;;5098836;28;19915;-54
2022/10/12 12:41:48;;;;;;;;;;;24.10;48.20;;;;;;5098963;28;19908;-52
2022/10/12 12:44:32;;;;;;;;;;;24.00;46.30;;;;;;5093564;28;19908;-51
2022/10/12 12:47:00;;;;;;;;;;;23.30;49.00;;;;;;5098675;28;19908;-51
2022/10/12 12:49:40;;;;;;;;;;;23.30;49.20;;;;;;5098871;28;19908;-54
2022/10/12 12:52:28;;;;;;;;;;;23.40;47.80;;;;;;5099015;28;19915;-54
2022/10/12 12:54:57;;;;;;;;;;;23.10;48.40;;;;;;5098431;28;19942;-55
2022/10/12 12:57:31;;;;;;;;;;;23.30;49.00;;;;;;5098296;28;19915;-52
2022/10/12 13:00:06;;;;;;;;;;;23.70;49.20;;;;;;5098647;28;19908;-52
2022/10/12 13:02:55;;;;;;;;;;;23.40;47.50;;;;;;5098022;28;19915;-52
2022/10/12 13:05:39;;;;;;;;;;;23.60;49.30;;;;;;5098167;28;20363;-52
2022/10/12 13:08:08;;;;;;;;;;;23.30;49.00;;;;;;5098331;28;19916;-50
2022/10/12 13:11:06;;;;;;;;;;;23.50;47.70;;;;;;5098498;28;19908;-52
2022/10/12 13:13:32;;;;;;;;;;;23.30;48.90;;;;;;5042611;28;19975;-54
2022/10/12 13:16:09;;;;;;;;;;;22.80;48.30;;;;;;5098418;28;19962;-53
2022/10/12 13:18:43;;;;;;;;;;;22.20;49.50;;;;;;5098214;28;19969;-54
2022/10/12 13:21:14;;;;;;;;;;;21.80;50.70;;;;;;5098518;28;19909;-50
2022/10/12 13:23:40;;;;;;;;;;;21.80;51.10;;;;;;5098199;28;19908;-51
2022/10/12 13:26:07;;;;;;;;;;;21.50;51.60;;;;;;5098225;28;19916;-53
2022/10/12 13:28:34;;;;;;;;;;;21.60;51.40;;;;;;5098140;28;19931;-53
2022/10/12 13:31:05;;;;;;;;;;;21.60;51.90;;;;;;5098225;28;19909;-52
2022/10/12 13:33:33;;;;;;;;;;;21.50;52.80;;;;;;5098010;28;19908;-55
2022/10/12 13:36:04;;;;;;;;;;;21.30;52.80;;;;;;5098231;28;19938;-51
2022/10/12 13:38:32;;;;;;;;;;;21.70;52.60;;;;;;5098109;28;19931;-53
2022/10/12 13:41:03;;;;;;;;;;;21.50;53.20;;;;;;5098324;28;20006;-52
2022/10/12 13:43:32;;;;;;;;;;;22.10;53.20;;;;;;5098174;28;19916;-54
2022/10/12 13:45:58;;;;;;;;;;;22.30;51.80;;;;;;5097818;28;19919;-50
2022/10/12 13:48:25;;;;;;;;;;;22.40;51.50;;;;;;5098037;28;20283;-51
2022/10/12 13:50:55;;;;;;;;;;;22.60;50.40;;;;;;5097906;28;19993;-52
2022/10/12 13:53:21;;;;;;;;;;;22.30;50.10;;;;;;5098057;28;20406;-50
2022/10/12 13:55:55;;;;;;;;;;;22.30;49.70;;;;;;5099734;28;19908;-51
2022/10/12 13:58:23;;;;;;;;;;;22.00;49.80;;;;;;5101940;28;19951;-50
2022/10/12 14:00:48;;;;;;;;;;;21.40;51.60;;;;;;5102149;28;19908;-50
2022/10/12 14:03:14;;;;;;;;;;;21.60;51.80;;;;;;5101816;28;19912;-51
2022/10/12 14:05:44;;;;;;;;;;;21.40;51.10;;;;;;5101736;28;19920;-51
2022/10/12 14:08:13;;;;;;;;;;;21.20;51.40;;;;;;5101715;28;19908;-51
2022/10/12 14:10:40;;;;;;;;;;;21.30;50.80;;;;;;5101657;28;19909;-54
2022/10/12 14:13:08;;;;;;;;;;;20.90;51.30;;;;;;5101518;28;19940;-55
2022/10/12 14:15:38;;;;;;;;;;;21.00;51.00;;;;;;5099281;28;19912;-53
2022/10/12 14:18:04;;;;;;;;;;;20.60;52.40;;;;;;5100555;28;19908;-52
2022/10/12 14:20:31;;;;;;;;;;;20.60;53.30;;;;;;5101423;28;19915;-54
2022/10/12 14:22:58;;;;;;;;;;;20.80;54.10;;;;;;5101594;28;20429;-51